createdAt,value
2019-03-09T00:01:25.208Z,10.80
2019-03-09T00:03:53.868Z,10.80
2019-03-09T00:06:22.421Z,10.90
2019-03-09T00:09:03.208Z,10.90
2019-03-09T00:11:31.765Z,10.90
2019-03-09T00:14:00.593Z,11.00
2019-03-09T00:16:29.225Z,11.10
2019-03-09T00:18:57.671Z,11.10
2019-03-09T00:21:28.899Z,11.10
2019-03-09T00:24:07.709Z,10.90
2019-03-09T00:26:41.429Z,10.80
2019-03-09T00:29:14.444Z,10.80
2019-03-09T00:31:47.217Z,10.70
2019-03-09T00:34:15.808Z,10.60
2019-03-09T00:36:44.738Z,10.60
2019-03-09T00:39:13.634Z,10.60
2019-03-09T00:41:45.223Z,10.50
2019-03-09T00:44:14.445Z,10.40
2019-03-09T00:46:43.055Z,10.30
2019-03-09T00:49:11.812Z,10.00
2019-03-09T00:51:40.803Z,9.80
2019-03-09T00:54:09.331Z,9.70
2019-03-09T00:56:37.909Z,9.80
2019-03-09T00:59:06.357Z,9.90
2019-03-09T01:01:34.961Z,10.00
2019-03-09T01:04:11.197Z,10.10
2019-03-09T01:06:40.170Z,10.10
2019-03-09T01:09:08.787Z,10.10
2019-03-09T01:11:39.184Z,10.10
2019-03-09T01:14:07.872Z,10.10
2019-03-09T01:16:36.457Z,10.00
2019-03-09T01:19:05.123Z,10.00
2019-03-09T01:21:33.795Z,10.00
2019-03-09T01:24:02.304Z,9.90
2019-03-09T01:26:30.920Z,9.80
2019-03-09T01:29:02.544Z,9.70
2019-03-09T01:31:31.132Z,9.60
2019-03-09T01:33:59.931Z,9.50
2019-03-09T01:36:28.714Z,9.50
2019-03-09T01:38:57.139Z,9.50
2019-03-09T01:41:25.679Z,9.60
2019-03-09T01:43:54.283Z,9.60
2019-03-09T01:46:22.734Z,9.50
2019-03-09T01:48:51.328Z,9.60
2019-03-09T01:51:19.870Z,9.50
2019-03-09T01:53:48.457Z,9.60
2019-03-09T01:56:16.912Z,9.60
2019-03-09T01:58:45.505Z,9.60
2019-03-09T02:01:14.064Z,9.50
2019-03-09T02:03:42.521Z,9.40
2019-03-09T02:06:11.047Z,9.50
2019-03-09T02:08:39.491Z,9.50
2019-03-09T02:11:08.169Z,9.60
2019-03-09T02:13:36.877Z,9.60
2019-03-09T02:16:05.532Z,9.70
2019-03-09T02:25:17.993Z,9.40
2019-03-09T02:27:46.443Z,9.30
2019-03-09T02:30:18.359Z,9.30
2019-03-09T02:32:46.818Z,9.20
2019-03-09T02:35:16.486Z,9.10
2019-03-09T02:37:46.737Z,9.20
2019-03-09T02:40:19.532Z,9.20
2019-03-09T02:42:48.113Z,9.30
2019-03-09T02:45:21.639Z,9.40
2019-03-09T02:47:50.111Z,9.40
2019-03-09T02:50:18.777Z,9.40
2019-03-09T02:52:47.216Z,9.40
2019-03-09T02:55:15.796Z,9.50
2019-03-09T02:57:44.584Z,9.50
2019-03-09T03:00:15.899Z,9.40
2019-03-09T03:03:03.960Z,9.40
2019-03-09T03:05:32.847Z,9.20
2019-03-09T03:08:01.351Z,9.00
2019-03-09T03:10:30.053Z,9.10
2019-03-09T03:12:58.511Z,8.90
2019-03-09T03:15:35.512Z,8.90
2019-03-09T03:18:04.109Z,8.90
2019-03-09T03:20:33.491Z,8.90
2019-03-09T03:23:12.954Z,8.90
2019-03-09T03:26:08.311Z,9.00
2019-03-09T03:28:36.800Z,9.10
2019-03-09T03:31:05.292Z,9.10
2019-03-09T03:33:34.064Z,9.10
2019-03-09T03:36:02.809Z,9.10
2019-03-09T03:38:31.319Z,9.10
2019-03-09T03:40:59.788Z,9.00
2019-03-09T03:43:28.378Z,8.90
2019-03-09T03:45:56.830Z,8.80
2019-03-09T03:48:25.468Z,8.70
2019-03-09T03:50:54.228Z,8.80
2019-03-09T03:53:22.898Z,8.90
2019-03-09T03:55:51.356Z,8.80
2019-03-09T03:58:19.903Z,8.70
2019-03-09T04:00:48.361Z,8.60
2019-03-09T04:03:16.795Z,8.60
2019-03-09T04:05:45.544Z,8.60
2019-03-09T04:08:14.068Z,8.50
2019-03-09T04:10:42.684Z,8.40
2019-03-09T04:13:11.147Z,8.30
2019-03-09T04:15:39.702Z,8.30
2019-03-09T04:18:08.472Z,8.40
2019-03-09T04:20:37.163Z,8.40
2019-03-09T04:23:05.616Z,8.30
2019-03-09T04:25:34.302Z,8.40
2019-03-09T04:28:02.883Z,8.40
2019-03-09T04:30:31.445Z,8.50
2019-03-09T04:33:00.008Z,8.50
2019-03-09T04:35:31.368Z,8.50
2019-03-09T04:38:00.049Z,8.40
2019-03-09T04:40:28.609Z,8.40
2019-03-09T04:42:57.170Z,8.50
2019-03-09T04:45:26.277Z,8.60
2019-03-09T04:47:54.700Z,8.60
2019-03-09T04:50:23.318Z,8.60
2019-03-09T04:52:51.899Z,8.50
2019-03-09T04:55:20.559Z,8.40
2019-03-09T04:57:48.993Z,8.30
2019-03-09T05:00:17.603Z,8.30
2019-03-09T05:02:46.063Z,8.30
2019-03-09T05:05:14.652Z,8.20
2019-03-09T05:07:52.492Z,8.10
2019-03-09T05:10:33.167Z,8.10
2019-03-09T05:13:06.272Z,8.20
2019-03-09T05:15:34.735Z,8.20
2019-03-09T05:18:03.228Z,8.50
2019-03-09T05:20:31.847Z,8.60
2019-03-09T05:23:00.269Z,8.60
2019-03-09T05:25:28.784Z,8.60
2019-03-09T05:27:57.370Z,8.50
2019-03-09T05:30:36.828Z,8.60
2019-03-09T05:33:05.293Z,8.50
2019-03-09T05:35:33.850Z,8.50
2019-03-09T05:38:02.335Z,8.40
2019-03-09T05:40:30.791Z,8.40
2019-03-09T05:42:59.310Z,8.40
2019-03-09T05:45:27.744Z,8.40
2019-03-09T05:47:56.196Z,8.50
2019-03-09T05:50:24.679Z,8.50
2019-03-09T05:53:04.998Z,8.60
2019-03-09T05:55:33.492Z,8.60
2019-03-09T05:58:02.114Z,8.50
2019-03-09T06:00:30.566Z,8.50
2019-03-09T06:02:59.090Z,8.60
2019-03-09T06:05:45.287Z,8.60
2019-03-09T06:08:13.761Z,8.60
2019-03-09T06:10:42.510Z,8.70
2019-03-09T06:13:11.075Z,8.60
2019-03-09T06:15:39.764Z,8.60
2019-03-09T06:18:08.347Z,8.60
2019-03-09T06:20:36.872Z,8.70
2019-03-09T06:23:05.305Z,8.80
2019-03-09T06:25:33.742Z,8.80
2019-03-09T06:28:02.361Z,8.90
2019-03-09T06:30:30.831Z,8.90
2019-03-09T06:33:25.884Z,9.00
2019-03-09T06:36:18.537Z,9.20
2019-03-09T06:38:56.136Z,9.50
2019-03-09T06:41:47.613Z,9.70
2019-03-09T06:44:16.087Z,9.70
2019-03-09T06:46:44.567Z,9.60
2019-03-09T06:49:13.119Z,9.70
2019-03-09T06:51:41.702Z,9.90
2019-03-09T06:54:10.154Z,9.90
2019-03-09T06:56:38.655Z,10.00
2019-03-09T06:59:07.077Z,9.90
2019-03-09T07:01:36.516Z,9.80
2019-03-09T07:04:05.901Z,9.80
2019-03-09T07:06:34.425Z,9.90
2019-03-09T07:09:03.268Z,10.00
2019-03-09T07:11:31.818Z,10.10
2019-03-09T07:14:19.982Z,10.30
2019-03-09T07:16:48.537Z,10.40
2019-03-09T07:19:16.986Z,10.40
2019-03-09T07:21:45.443Z,10.40
2019-03-09T07:24:14.007Z,10.40
2019-03-09T07:26:42.458Z,10.40
2019-03-09T07:29:10.940Z,10.50
2019-03-09T07:31:39.401Z,10.50
2019-03-09T07:34:19.856Z,10.50
2019-03-09T07:36:48.511Z,10.60
2019-03-09T07:39:17.085Z,10.60
2019-03-09T07:41:45.669Z,10.80
2019-03-09T07:44:14.186Z,10.80
2019-03-09T07:46:42.677Z,11.00
2019-03-09T07:49:11.101Z,11.20
2019-03-09T07:51:39.566Z,11.30
2019-03-09T07:54:08.173Z,11.40
2019-03-09T07:56:36.641Z,11.50
2019-03-09T07:59:09.130Z,11.60
2019-03-09T08:01:37.570Z,11.70
2019-03-09T08:04:06.040Z,11.80
2019-03-09T08:06:34.646Z,12.00
2019-03-09T08:09:04.549Z,12.20
2019-03-09T08:11:32.992Z,12.60
2019-03-09T08:14:01.505Z,12.90
2019-03-09T08:16:35.881Z,13.20
2019-03-09T08:19:00.152Z,13.30
2019-03-09T08:21:28.618Z,13.40
2019-03-09T08:23:57.076Z,13.30
2019-03-09T08:26:25.531Z,13.20
2019-03-09T08:28:53.988Z,13.20
2019-03-09T08:31:22.691Z,13.20
2019-03-09T08:33:51.178Z,13.20
2019-03-09T08:36:19.622Z,13.00
2019-03-09T08:38:48.121Z,13.10
2019-03-09T08:41:16.785Z,13.30
2019-03-09T08:43:45.234Z,13.40
2019-03-09T08:46:13.868Z,13.40
2019-03-09T08:48:42.297Z,13.40
2019-03-09T08:51:11.442Z,13.30
2019-03-09T08:53:39.967Z,13.20
2019-03-09T08:56:08.465Z,13.20
2019-03-09T08:58:36.951Z,13.30
2019-03-09T09:01:05.445Z,13.50
2019-03-09T09:03:33.855Z,13.70
2019-03-09T09:06:02.302Z,13.60
2019-03-09T09:08:30.943Z,13.80
2019-03-09T09:10:59.377Z,13.90
2019-03-09T09:13:27.844Z,14.20
2019-03-09T09:15:56.296Z,14.80
2019-03-09T09:18:24.765Z,15.30
2019-03-09T09:20:53.220Z,15.70
2019-03-09T09:23:21.688Z,15.80
2019-03-09T09:25:50.142Z,15.90
2019-03-09T09:28:18.583Z,16.60
2019-03-09T09:30:47.064Z,16.90
2019-03-09T09:33:15.518Z,17.20
2019-03-09T09:35:44.001Z,17.40
2019-03-09T09:38:12.577Z,17.60
2019-03-09T09:40:41.041Z,17.70
2019-03-09T09:43:09.507Z,17.90
2019-03-09T09:45:37.973Z,17.70
2019-03-09T09:48:06.509Z,17.10
2019-03-09T09:50:34.967Z,17.00
2019-03-09T09:53:03.425Z,17.10
2019-03-09T09:55:31.877Z,17.50
2019-03-09T09:58:08.875Z,17.70
2019-03-09T10:00:37.696Z,17.80
2019-03-09T10:03:06.328Z,18.50
2019-03-09T10:05:34.843Z,18.90
2019-03-09T10:08:03.330Z,19.00
2019-03-09T10:10:31.784Z,19.10
2019-03-09T10:13:00.285Z,19.40
2019-03-09T10:15:34.854Z,19.50
2019-03-09T10:18:03.311Z,20.00
2019-03-09T10:20:31.766Z,19.90
2019-03-09T10:23:04.690Z,19.60
2019-03-09T10:25:30.376Z,19.00
2019-03-09T10:27:58.825Z,18.50
2019-03-09T10:30:27.313Z,18.60
2019-03-09T10:32:55.754Z,18.70
2019-03-09T10:35:24.228Z,19.00
2019-03-09T10:37:52.690Z,19.60
2019-03-09T10:40:20.967Z,19.60
2019-03-09T10:42:49.474Z,19.90
2019-03-09T10:45:20.029Z,20.30
2019-03-09T10:47:48.745Z,20.40
2019-03-09T10:50:17.726Z,20.50
2019-03-09T10:52:46.182Z,20.30
2019-03-09T10:55:31.657Z,19.90
2019-03-09T10:58:00.118Z,20.00
2019-03-09T11:00:33.702Z,20.60
2019-03-09T11:03:02.253Z,20.40
2019-03-09T11:05:31.605Z,20.00
2019-03-09T11:08:00.077Z,19.90
2019-03-09T11:10:28.608Z,19.90
2019-03-09T11:12:57.086Z,20.10
2019-03-09T11:15:25.567Z,20.70
2019-03-09T11:17:55.740Z,21.10
2019-03-09T11:20:24.217Z,21.70
2019-03-09T11:22:52.675Z,21.30
2019-03-09T11:25:21.143Z,21.20
2019-03-09T11:27:49.585Z,20.80
2019-03-09T11:30:23.753Z,20.50
2019-03-09T11:32:52.167Z,20.70
2019-03-09T11:35:20.625Z,20.40
2019-03-09T11:37:49.090Z,20.60
2019-03-09T11:40:17.563Z,20.70
2019-03-09T11:42:46.428Z,20.70
2019-03-09T11:45:17.125Z,20.50
2019-03-09T11:47:45.609Z,21.10
2019-03-09T11:50:15.592Z,21.10
2019-03-09T11:52:44.130Z,21.00
2019-03-09T11:55:13.916Z,21.10
2019-03-09T11:57:42.435Z,21.40
2019-03-09T12:00:15.498Z,21.50
2019-03-09T12:02:43.945Z,21.70
2019-03-09T12:05:12.402Z,22.10
2019-03-09T12:07:40.858Z,22.20
2019-03-09T12:10:10.643Z,21.60
2019-03-09T12:12:39.084Z,21.10
2019-03-09T12:15:10.532Z,21.00
2019-03-09T12:17:38.987Z,21.20
2019-03-09T12:20:09.354Z,21.00
2019-03-09T12:22:37.827Z,20.70
2019-03-09T12:25:09.626Z,21.00
2019-03-09T12:27:38.123Z,21.00
2019-03-09T12:30:09.575Z,20.60
2019-03-09T12:32:38.056Z,20.80
2019-03-09T12:35:07.971Z,20.60
2019-03-09T12:37:39.102Z,20.60
2019-03-09T12:40:13.318Z,20.30
2019-03-09T12:42:41.795Z,20.20
2019-03-09T12:45:11.349Z,20.50
2019-03-09T12:47:39.807Z,20.40
2019-03-09T12:50:11.734Z,20.10
2019-03-09T12:52:40.328Z,19.80
2019-03-09T12:55:08.784Z,20.10
2019-03-09T12:57:37.401Z,20.40
2019-03-09T13:00:09.134Z,20.50
2019-03-09T13:02:37.588Z,20.90
2019-03-09T13:05:06.141Z,21.60
2019-03-09T13:07:34.683Z,21.60
2019-03-09T13:10:03.671Z,21.40
2019-03-09T13:12:32.132Z,21.20
2019-03-09T13:15:00.602Z,21.70
2019-03-09T13:17:31.196Z,21.80
2019-03-09T13:19:59.318Z,21.90
2019-03-09T13:22:27.823Z,21.80
2019-03-09T13:24:56.280Z,21.70
2019-03-09T13:27:24.809Z,21.90
2019-03-09T13:29:53.258Z,21.90
2019-03-09T13:32:21.735Z,22.60
2019-03-09T13:34:50.172Z,23.10
2019-03-09T13:37:18.635Z,23.20
2019-03-09T13:39:47.128Z,22.90
2019-03-09T13:42:15.561Z,22.40
2019-03-09T13:44:44.022Z,22.20
2019-03-09T13:47:12.612Z,22.20
2019-03-09T13:49:41.135Z,22.20
2019-03-09T13:52:09.587Z,22.30
2019-03-09T13:54:38.035Z,22.70
2019-03-09T13:57:06.498Z,22.90
2019-03-09T13:59:34.933Z,23.30
2019-03-09T14:02:03.406Z,23.30
2019-03-09T14:04:31.833Z,23.10
2019-03-09T14:07:00.327Z,23.10
2019-03-09T14:09:28.849Z,22.60
2019-03-09T14:11:57.359Z,22.70
2019-03-09T14:14:25.802Z,22.90
2019-03-09T14:16:54.263Z,23.30
2019-03-09T14:19:22.945Z,23.10
2019-03-09T14:21:51.654Z,22.80
2019-03-09T14:24:20.073Z,22.30
2019-03-09T14:26:48.578Z,21.90
2019-03-09T14:29:17.130Z,22.00
2019-03-09T14:31:45.608Z,22.00
2019-03-09T14:34:14.036Z,21.90
2019-03-09T14:36:42.593Z,21.20
2019-03-09T14:39:11.130Z,20.90
2019-03-09T14:41:40.797Z,20.40
2019-03-09T14:44:09.258Z,20.30
2019-03-09T14:46:37.790Z,20.30
2019-03-09T14:49:06.256Z,20.10
2019-03-09T14:51:34.716Z,20.00
2019-03-09T14:54:03.178Z,20.10
2019-03-09T14:56:31.764Z,20.00
2019-03-09T14:59:00.235Z,19.80
2019-03-09T15:01:28.754Z,19.70
2019-03-09T15:03:57.250Z,19.60
2019-03-09T15:06:25.696Z,19.60
2019-03-09T15:08:54.189Z,19.80
2019-03-09T15:11:22.734Z,20.10
2019-03-09T15:13:52.552Z,20.10
2019-03-09T15:16:21.124Z,19.80
2019-03-09T15:18:49.610Z,19.60
2019-03-09T15:21:18.042Z,19.30
2019-03-09T15:23:46.698Z,19.20
2019-03-09T15:26:15.387Z,19.20
2019-03-09T15:28:44.069Z,19.00
2019-03-09T15:31:12.779Z,19.00
2019-03-09T15:33:41.235Z,19.10
2019-03-09T15:36:09.828Z,19.10
2019-03-09T15:38:38.301Z,19.20
2019-03-09T15:41:09.869Z,19.40
2019-03-09T15:43:38.471Z,19.40
2019-03-09T15:46:06.903Z,19.40
2019-03-09T15:48:35.523Z,19.20
2019-03-09T15:51:04.008Z,19.00
2019-03-09T15:53:32.660Z,18.60
2019-03-09T15:56:01.470Z,18.60
2019-03-09T15:58:30.078Z,18.30
2019-03-09T16:00:58.522Z,18.40
2019-03-09T16:03:27.644Z,18.30
2019-03-09T16:05:56.099Z,18.30
2019-03-09T16:08:24.646Z,18.20
2019-03-09T16:10:53.138Z,18.20
2019-03-09T16:13:21.634Z,18.20
2019-03-09T16:15:50.077Z,18.30
2019-03-09T16:18:18.531Z,18.20
2019-03-09T16:20:46.992Z,18.10
2019-03-09T16:23:15.451Z,18.00
2019-03-09T16:25:44.034Z,17.90
2019-03-09T16:28:12.485Z,17.80
2019-03-09T16:30:40.947Z,17.80
2019-03-09T16:33:09.491Z,17.70
2019-03-09T16:35:37.950Z,17.70
2019-03-09T16:38:06.649Z,17.60
2019-03-09T16:40:40.408Z,17.50
2019-03-09T16:43:05.205Z,17.50
2019-03-09T16:45:33.649Z,17.40
2019-03-09T16:48:02.132Z,17.40
2019-03-09T16:50:30.634Z,17.40
2019-03-09T16:52:59.127Z,17.30
2019-03-09T16:55:27.568Z,17.30
2019-03-09T16:57:56.017Z,17.20
2019-03-09T17:00:26.103Z,17.20
2019-03-09T17:02:54.554Z,17.10
2019-03-09T17:05:23.018Z,17.00
2019-03-09T17:07:51.473Z,16.90
2019-03-09T17:10:19.920Z,16.80
2019-03-09T17:12:51.181Z,16.70
2019-03-09T17:15:22.918Z,16.60
2019-03-09T17:17:51.449Z,16.50
2019-03-09T17:20:19.908Z,16.50
2019-03-09T17:22:51.069Z,16.40
2019-03-09T17:25:19.548Z,16.30
2019-03-09T17:27:49.636Z,16.20
2019-03-09T17:30:19.023Z,16.20
2019-03-09T17:32:47.601Z,16.10
2019-03-09T17:35:16.057Z,16.00
2019-03-09T17:37:44.527Z,15.90
2019-03-09T17:40:14.315Z,15.80
2019-03-09T17:42:42.778Z,15.80
2019-03-09T17:45:19.712Z,15.70
2019-03-09T17:47:50.168Z,15.70
2019-03-09T17:50:18.575Z,15.60
2019-03-09T17:52:47.161Z,15.60
2019-03-09T17:55:15.591Z,15.60
2019-03-09T17:57:44.036Z,15.50
2019-03-09T18:00:18.687Z,15.50
2019-03-09T18:02:47.148Z,15.40
2019-03-09T18:05:15.618Z,15.40
2019-03-09T18:07:44.083Z,15.40
2019-03-09T18:10:21.468Z,15.30
2019-03-09T18:12:49.929Z,15.20
2019-03-09T18:15:18.368Z,15.20
2019-03-09T18:17:46.815Z,15.20
2019-03-09T18:20:15.298Z,15.10
2019-03-09T18:22:43.759Z,15.10
2019-03-09T18:25:12.221Z,15.10
2019-03-09T18:27:40.848Z,15.00
2019-03-09T18:30:11.133Z,14.90
2019-03-09T18:32:39.597Z,14.90
2019-03-09T18:35:11.535Z,14.80
2019-03-09T18:37:40.002Z,14.80
2019-03-09T18:40:16.000Z,14.70
2019-03-09T18:42:44.486Z,14.70
2019-03-09T18:45:15.668Z,14.60
2019-03-09T18:47:44.274Z,14.60
2019-03-09T18:50:12.745Z,14.60
2019-03-09T18:52:43.716Z,14.60
2019-03-09T18:55:12.259Z,14.50
2019-03-09T18:57:40.825Z,14.50
2019-03-09T19:00:21.647Z,14.50
2019-03-09T19:02:50.083Z,14.60
2019-03-09T19:05:18.562Z,14.50
2019-03-09T19:07:47.038Z,14.40
2019-03-09T19:10:23.427Z,14.40
2019-03-09T19:12:51.934Z,14.40
2019-03-09T19:15:20.397Z,14.30
2019-03-09T19:17:48.841Z,14.30
2019-03-09T19:20:18.423Z,14.40
2019-03-09T19:22:46.917Z,14.40
2019-03-09T19:25:15.712Z,14.30
2019-03-09T19:27:44.184Z,14.30
2019-03-09T19:30:16.817Z,14.20
2019-03-09T19:32:45.307Z,14.20
2019-03-09T19:35:13.761Z,14.10
2019-03-09T19:37:42.196Z,14.10
2019-03-09T19:40:17.852Z,14.10
2019-03-09T19:42:46.299Z,14.10
2019-03-09T19:45:21.801Z,14.00
2019-03-09T19:47:50.266Z,14.00
2019-03-09T19:50:19.764Z,13.90
2019-03-09T19:52:48.218Z,13.90
2019-03-09T19:55:16.718Z,13.90
2019-03-09T19:57:45.126Z,13.90
2019-03-09T20:00:15.343Z,13.80
2019-03-09T20:02:43.795Z,13.80
2019-03-09T20:05:12.350Z,13.70
2019-03-09T20:07:40.844Z,13.70
2019-03-09T20:10:11.776Z,13.60
2019-03-09T20:12:40.240Z,13.60
2019-03-09T20:15:15.713Z,13.60
2019-03-09T20:17:45.899Z,13.50
2019-03-09T20:20:16.744Z,13.50
2019-03-09T20:22:45.228Z,13.50
2019-03-09T20:25:13.758Z,13.60
2019-03-09T20:27:42.220Z,13.50
2019-03-09T20:30:13.297Z,13.50
2019-03-09T20:32:41.765Z,13.40
2019-03-09T20:35:10.206Z,13.40
2019-03-09T20:37:38.725Z,13.20
2019-03-09T20:40:12.442Z,13.10
2019-03-09T20:42:40.956Z,13.10
2019-03-09T20:45:11.750Z,13.00
2019-03-09T20:47:40.215Z,12.90
2019-03-09T20:50:22.023Z,12.90
2019-03-09T20:52:50.554Z,12.80
2019-03-09T20:55:19.001Z,12.70
2019-03-09T20:57:47.456Z,12.70
2019-03-09T21:00:22.786Z,12.70
2019-03-09T21:02:51.230Z,12.60
2019-03-09T21:05:19.740Z,12.60
2019-03-09T21:07:48.273Z,12.50
2019-03-09T21:10:18.846Z,12.50
2019-03-09T21:12:54.672Z,12.40
2019-03-09T21:15:23.190Z,12.40
2019-03-09T21:17:51.760Z,12.40
2019-03-09T21:20:20.338Z,12.40
2019-03-09T21:22:48.886Z,12.40
2019-03-09T21:25:17.499Z,12.50
2019-03-09T21:27:46.014Z,12.50
2019-03-09T21:30:15.304Z,12.50
2019-03-09T21:32:43.765Z,12.50
2019-03-09T21:35:12.227Z,12.50
2019-03-09T21:37:40.854Z,12.50
2019-03-09T21:40:09.294Z,12.50
2019-03-09T21:42:37.726Z,12.50
2019-03-09T21:45:13.688Z,12.50
2019-03-09T21:47:42.150Z,12.40
2019-03-09T21:50:17.551Z,12.40
2019-03-09T21:52:46.034Z,12.40
2019-03-09T21:55:15.649Z,12.50
2019-03-09T21:57:44.109Z,12.50
2019-03-09T22:00:15.463Z,12.40
2019-03-09T22:02:43.958Z,12.40
2019-03-09T22:05:18.067Z,12.30
2019-03-09T22:07:46.614Z,12.30
2019-03-09T22:10:15.108Z,12.20
2019-03-09T22:12:43.583Z,12.10
2019-03-09T22:15:14.187Z,12.10
2019-03-09T22:17:42.647Z,12.00
2019-03-09T22:20:12.178Z,12.00
2019-03-09T22:22:40.671Z,12.00
2019-03-09T22:25:10.729Z,11.90
2019-03-09T22:27:39.346Z,11.80
2019-03-09T22:30:10.675Z,11.70
2019-03-09T22:32:39.216Z,11.70
2019-03-09T22:35:10.933Z,11.60
2019-03-09T22:37:39.460Z,11.60
2019-03-09T22:40:13.620Z,11.40
2019-03-09T22:42:42.039Z,11.40
2019-03-09T22:45:13.109Z,11.40
2019-03-09T22:47:41.569Z,11.40
2019-03-09T22:50:15.620Z,11.40
2019-03-09T22:52:44.104Z,11.40
2019-03-09T22:55:12.545Z,11.30
2019-03-09T22:57:41.026Z,11.30
2019-03-09T23:00:12.659Z,11.30
2019-03-09T23:02:41.127Z,11.30
2019-03-09T23:05:10.834Z,11.20
2019-03-09T23:07:39.416Z,11.20
2019-03-09T23:10:11.155Z,11.30
2019-03-09T23:12:39.579Z,11.30
2019-03-09T23:15:13.204Z,11.40
2019-03-09T23:17:41.731Z,11.40
2019-03-09T23:20:11.953Z,11.40
2019-03-09T23:22:40.424Z,11.40
2019-03-09T23:25:09.408Z,11.40
2019-03-09T23:27:37.858Z,11.40
2019-03-09T23:30:20.288Z,11.30
2019-03-09T23:32:48.805Z,11.40
2019-03-09T23:35:17.317Z,11.30
2019-03-09T23:37:48.990Z,11.30
2019-03-09T23:40:19.249Z,11.20
2019-03-09T23:42:47.799Z,11.00
2019-03-09T23:45:21.502Z,10.90
2019-03-09T23:47:49.986Z,10.90
2019-03-09T23:50:18.608Z,10.80
2019-03-09T23:52:47.077Z,10.90
2019-03-09T23:55:21.776Z,10.90
2019-03-09T23:57:46.153Z,10.90
